Pagrindinis puslapis
METAR-TAF:

METAR-TAF

Oro uostai :

Passo Rolle, Italija

platuma: 46-18N, ilguma: 011-47E, Aukštis: 2004 m

Dabartinis oras

Ataskaita buvo paskelbta 44 minutes, ne 10:55 UTC
Vėjas 8 kt iš Rytų/Pietryčių
Temperatūra 11°C
Drėgmė 71%
Slėgis 1027 hPa
Matomumas 10 km arba daugiau
nėra debesų žemiau 1500 m ir nėra kamuolinių lietaus debesų

METAR: LIVR 211055Z 12008KT CAVOK 11/06 Q1027 RMK SKC MON LIB VIS MIN 9999

Laikas: 13:39 (11:39 UTC)


TAF: trūkstamas

Orai ataskaitas ir orų prognozės (METAR, TAF).

turimą stotys yra geltonos ir raudonos taškus žemėlapyje.

Perkelti pele per norėdami pamatyti stoties vardą.

Tada spustelėkite, norėdami matyti oro stebėjimo ir prognozės.

Norėdami pakeisti žemėlapį: spustelėkite ant žalios mygtukų su juodo kryžiaus žemyn,; žalią mygtuką su brūkšneliu, jei norite nutolinti; arba žalių rodyklių gretimoms žemėlapius.


METAR-TAF: